sensor_id;sensor_type;location;lat;lon;timestamp;pressure;altitude;pressure_sealevel;temperature;humidity
57412;BME280;43247;52.828;-8.980;2023-04-30T00:00:59;101707.54;;;14.54;83.53
57412;BME280;43247;52.828;-8.980;2023-04-30T00:01:59;101705.98;;;14.54;83.48
57412;BME280;43247;52.828;-8.980;2023-04-30T00:02:59;101703.43;;;14.53;83.48
57412;BME280;43247;52.828;-8.980;2023-04-30T00:03:59;101703.48;;;14.52;83.51
57412;BME280;43247;52.828;-8.980;2023-04-30T00:04:59;101699.86;;;14.52;83.48
57412;BME280;43247;52.828;-8.980;2023-04-30T00:05:59;101701.96;;;14.52;83.46
57412;BME280;43247;52.828;-8.980;2023-04-30T00:07:00;101703.07;;;14.51;83.48
57412;BME280;43247;52.828;-8.980;2023-04-30T00:08:00;101702.75;;;14.50;83.50
57412;BME280;43247;52.828;-8.980;2023-04-30T00:09:00;101703.51;;;14.50;83.56
57412;BME280;43247;52.828;-8.980;2023-04-30T00:10:00;101705.56;;;14.50;83.58
57412;BME280;43247;52.828;-8.980;2023-04-30T00:11:00;101703.75;;;14.49;83.57
57412;BME280;43247;52.828;-8.980;2023-04-30T00:12:00;101702.10;;;14.49;83.63
57412;BME280;43247;52.828;-8.980;2023-04-30T00:13:01;101700.54;;;14.48;83.61
57412;BME280;43247;52.828;-8.980;2023-04-30T00:14:01;101701.35;;;14.48;83.56
57412;BME280;43247;52.828;-8.980;2023-04-30T00:15:01;101700.36;;;14.47;83.41
57412;BME280;43247;52.828;-8.980;2023-04-30T00:16:01;101701.43;;;14.47;83.33
57412;BME280;43247;52.828;-8.980;2023-04-30T00:17:01;101700.42;;;14.48;83.33
57412;BME280;43247;52.828;-8.980;2023-04-30T00:18:02;101700.48;;;14.48;83.31
57412;BME280;43247;52.828;-8.980;2023-04-30T00:19:02;101700.75;;;14.48;83.32
57412;BME280;43247;52.828;-8.980;2023-04-30T00:20:04;101701.84;;;14.48;83.41
57412;BME280;43247;52.828;-8.980;2023-04-30T00:21:04;101703.29;;;14.48;83.40
57412;BME280;43247;52.828;-8.980;2023-04-30T00:22:04;101704.14;;;14.47;83.33
57412;BME280;43247;52.828;-8.980;2023-04-30T00:23:04;101702.70;;;14.46;83.38
57412;BME280;43247;52.828;-8.980;2023-04-30T00:24:04;101702.12;;;14.46;83.34
57412;BME280;43247;52.828;-8.980;2023-04-30T00:25:04;101703.34;;;14.46;83.41
57412;BME280;43247;52.828;-8.980;2023-04-30T00:26:04;101703.40;;;14.45;83.38
57412;BME280;43247;52.828;-8.980;2023-04-30T00:27:05;101703.16;;;14.45;83.38
57412;BME280;43247;52.828;-8.980;2023-04-30T00:28:05;101702.54;;;14.45;83.44
57412;BME280;43247;52.828;-8.980;2023-04-30T00:29:05;101703.41;;;14.45;83.39
57412;BME280;43247;52.828;-8.980;2023-04-30T00:30:06;101702.05;;;14.44;83.39
57412;BME280;43247;52.828;-8.980;2023-04-30T00:31:05;101702.11;;;14.44;83.40
57412;BME280;43247;52.828;-8.980;2023-04-30T00:32:05;101702.20;;;14.44;83.41
57412;BME280;43247;52.828;-8.980;2023-04-30T00:33:05;101700.86;;;14.43;83.46
57412;BME280;43247;52.828;-8.980;2023-04-30T00:34:06;101700.01;;;14.43;83.47
57412;BME280;43247;52.828;-8.980;2023-04-30T00:35:06;101702.61;;;14.43;83.38
57412;BME280;43247;52.828;-8.980;2023-04-30T00:36:06;101700.76;;;14.42;83.39
57412;BME280;43247;52.828;-8.980;2023-04-30T00:37:06;101702.26;;;14.42;83.37
57412;BME280;43247;52.828;-8.980;2023-04-30T00:38:06;101701.11;;;14.41;83.41
57412;BME280;43247;52.828;-8.980;2023-04-30T00:39:06;101698.65;;;14.41;83.42
57412;BME280;43247;52.828;-8.980;2023-04-30T00:40:08;101696.59;;;14.41;83.42
57412;BME280;43247;52.828;-8.980;2023-04-30T00:41:07;101696.22;;;14.40;83.42
57412;BME280;43247;52.828;-8.980;2023-04-30T00:42:07;101694.52;;;14.40;83.45
57412;BME280;43247;52.828;-8.980;2023-04-30T00:43:07;101694.79;;;14.40;83.47
57412;BME280;43247;52.828;-8.980;2023-04-30T00:44:07;101698.58;;;14.40;83.44
57412;BME280;43247;52.828;-8.980;2023-04-30T00:45:08;101696.92;;;14.39;83.45
57412;BME280;43247;52.828;-8.980;2023-04-30T00:46:07;101696.42;;;14.39;83.40
57412;BME280;43247;52.828;-8.980;2023-04-30T00:47:08;101694.59;;;14.38;83.47
57412;BME280;43247;52.828;-8.980;2023-04-30T00:48:08;101693.98;;;14.37;83.46
57412;BME280;43247;52.828;-8.980;2023-04-30T00:49:08;101691.38;;;14.37;83.47
57412;BME280;43247;52.828;-8.980;2023-04-30T00:50:08;101693.61;;;14.37;83.50
57412;BME280;43247;52.828;-8.980;2023-04-30T00:51:08;101694.60;;;14.36;83.50
57412;BME280;43247;52.828;-8.980;2023-04-30T00:52:08;101695.79;;;14.36;83.53
57412;BME280;43247;52.828;-8.980;2023-04-30T00:53:09;101698.20;;;14.35;83.51
57412;BME280;43247;52.828;-8.980;2023-04-30T00:54:09;101698.79;;;14.35;83.51
57412;BME280;43247;52.828;-8.980;2023-04-30T00:55:10;101698.79;;;14.34;83.54
57412;BME280;43247;52.828;-8.980;2023-04-30T00:56:09;101699.32;;;14.34;83.57
57412;BME280;43247;52.828;-8.980;2023-04-30T00:57:11;101698.09;;;14.34;83.60
57412;BME280;43247;52.828;-8.980;2023-04-30T00:58:09;101697.34;;;14.33;83.60
57412;BME280;43247;52.828;-8.980;2023-04-30T00:59:10;101697.66;;;14.32;83.60
57412;BME280;43247;52.828;-8.980;2023-04-30T01:00:11;101699.38;;;14.32;83.68
57412;BME280;43247;52.828;-8.980;2023-04-30T01:01:10;101697.14;;;14.31;83.71
57412;BME280;43247;52.828;-8.980;2023-04-30T01:02:10;101696.20;;;14.30;83.79
57412;BME280;43247;52.828;-8.980;2023-04-30T01:03:10;101695.65;;;14.30;83.73
57412;BME280;43247;52.828;-8.980;2023-04-30T01:04:11;101696.49;;;14.30;83.74
57412;BME280;43247;52.828;-8.980;2023-04-30T01:05:10;101697.32;;;14.30;83.70
57412;BME280;43247;52.828;-8.980;2023-04-30T01:06:11;101694.54;;;14.30;83.70
57412;BME280;43247;52.828;-8.980;2023-04-30T01:07:11;101693.60;;;14.29;83.72
57412;BME280;43247;52.828;-8.980;2023-04-30T01:08:11;101691.34;;;14.28;83.74
57412;BME280;43247;52.828;-8.980;2023-04-30T01:09:11;101692.39;;;14.28;83.80
57412;BME280;43247;52.828;-8.980;2023-04-30T01:10:12;101693.44;;;14.28;83.71
57412;BME280;43247;52.828;-8.980;2023-04-30T01:11:18;101692.29;;;14.28;83.72
57412;BME280;43247;52.828;-8.980;2023-04-30T01:12:16;101693.84;;;14.27;83.74
57412;BME280;43247;52.828;-8.980;2023-04-30T01:13:19;101695.79;;;14.27;83.73
57412;BME280;43247;52.828;-8.980;2023-04-30T01:14:20;101693.45;;;14.26;83.74
57412;BME280;43247;52.828;-8.980;2023-04-30T01:15:20;101694.33;;;14.25;83.80
57412;BME280;43247;52.828;-8.980;2023-04-30T01:16:14;101690.49;;;14.24;83.73
57412;BME280;43247;52.828;-8.980;2023-04-30T01:17:19;101692.27;;;14.24;83.79
57412;BME280;43247;52.828;-8.980;2023-04-30T01:18:16;101691.99;;;14.23;83.76
57412;BME280;43247;52.828;-8.980;2023-04-30T01:19:24;101693.72;;;14.23;83.95
57412;BME280;43247;52.828;-8.980;2023-04-30T01:20:13;101694.33;;;14.22;83.86
57412;BME280;43247;52.828;-8.980;2023-04-30T01:21:14;101696.42;;;14.22;83.88
57412;BME280;43247;52.828;-8.980;2023-04-30T01:22:24;101695.46;;;14.21;83.76
57412;BME280;43247;52.828;-8.980;2023-04-30T01:23:21;101697.36;;;14.20;83.85
57412;BME280;43247;52.828;-8.980;2023-04-30T01:24:26;101696.53;;;14.20;83.82
57412;BME280;43247;52.828;-8.980;2023-04-30T01:25:25;101696.58;;;14.19;83.90
57412;BME280;43247;52.828;-8.980;2023-04-30T01:26:18;101698.99;;;14.18;83.73
57412;BME280;43247;52.828;-8.980;2023-04-30T01:27:23;101701.64;;;14.18;83.81
57412;BME280;43247;52.828;-8.980;2023-04-30T01:28:15;101704.45;;;14.17;83.78
57412;BME280;43247;52.828;-8.980;2023-04-30T01:29:16;101703.84;;;14.16;83.75
57412;BME280;43247;52.828;-8.980;2023-04-30T01:30:15;101703.64;;;14.15;83.86
57412;BME280;43247;52.828;-8.980;2023-04-30T01:31:18;101702.95;;;14.16;83.85
57412;BME280;43247;52.828;-8.980;2023-04-30T01:32:15;101702.81;;;14.15;84.08
57412;BME280;43247;52.828;-8.980;2023-04-30T01:33:15;101702.54;;;14.14;83.92
57412;BME280;43247;52.828;-8.980;2023-04-30T01:34:15;101703.41;;;14.13;83.92
57412;BME280;43247;52.828;-8.980;2023-04-30T01:35:15;101702.63;;;14.12;84.07
57412;BME280;43247;52.828;-8.980;2023-04-30T01:36:27;101704.22;;;14.12;84.13
57412;BME280;43247;52.828;-8.980;2023-04-30T01:37:21;101702.88;;;14.11;83.94
57412;BME280;43247;52.828;-8.980;2023-04-30T01:38:24;101701.65;;;14.11;83.91
57412;BME280;43247;52.828;-8.980;2023-04-30T01:39:28;101698.75;;;14.10;84.03
57412;BME280;43247;52.828;-8.980;2023-04-30T01:40:23;101697.93;;;14.09;83.99
57412;BME280;43247;52.828;-8.980;2023-04-30T01:41:22;101695.30;;;14.09;83.98
57412;BME280;43247;52.828;-8.980;2023-04-30T01:42:20;101694.18;;;14.08;84.08
57412;BME280;43247;52.828;-8.980;2023-04-30T01:43:21;101694.58;;;14.08;84.07
57412;BME280;43247;52.828;-8.980;2023-04-30T01:44:28;101697.67;;;14.08;83.97
57412;BME280;43247;52.828;-8.980;2023-04-30T01:45:26;101694.69;;;14.07;84.02
57412;BME280;43247;52.828;-8.980;2023-04-30T01:46:22;101697.22;;;14.07;84.05
57412;BME280;43247;52.828;-8.980;2023-04-30T01:47:25;101696.64;;;14.06;84.04
57412;BME280;43247;52.828;-8.980;2023-04-30T01:48:27;101695.75;;;14.06;84.01
57412;BME280;43247;52.828;-8.980;2023-04-30T01:49:22;101695.77;;;14.06;84.04
57412;BME280;43247;52.828;-8.980;2023-04-30T01:50:24;101696.25;;;14.05;84.09
57412;BME280;43247;52.828;-8.980;2023-04-30T01:51:24;101695.88;;;14.05;84.08
57412;BME280;43247;52.828;-8.980;2023-04-30T01:52:23;101695.28;;;14.05;84.01
57412;BME280;43247;52.828;-8.980;2023-04-30T01:53:22;101693.02;;;14.04;84.00
57412;BME280;43247;52.828;-8.980;2023-04-30T01:54:22;101694.15;;;14.04;84.06
57412;BME280;43247;52.828;-8.980;2023-04-30T01:55:22;101694.43;;;14.04;84.09
57412;BME280;43247;52.828;-8.980;2023-04-30T01:56:22;101695.17;;;14.03;84.03
57412;BME280;43247;52.828;-8.980;2023-04-30T01:57:31;101696.79;;;14.03;84.06
57412;BME280;43247;52.828;-8.980;2023-04-30T01:58:19;101695.63;;;14.03;84.08
57412;BME280;43247;52.828;-8.980;2023-04-30T01:59:19;101694.36;;;14.03;84.16
57412;BME280;43247;52.828;-8.980;2023-04-30T02:00:19;101695.65;;;14.02;84.16
57412;BME280;43247;52.828;-8.980;2023-04-30T02:01:25;101695.66;;;14.02;84.22
57412;BME280;43247;52.828;-8.980;2023-04-30T02:02:19;101696.45;;;14.02;84.21
57412;BME280;43247;52.828;-8.980;2023-04-30T02:03:19;101696.02;;;14.02;84.21
57412;BME280;43247;52.828;-8.980;2023-04-30T02:04:20;101696.75;;;14.01;84.22
57412;BME280;43247;52.828;-8.980;2023-04-30T02:05:20;101696.01;;;14.01;84.23
57412;BME280;43247;52.828;-8.980;2023-04-30T02:06:20;101691.74;;;14.01;84.27
57412;BME280;43247;52.828;-8.980;2023-04-30T02:07:28;101692.95;;;14.01;84.27
57412;BME280;43247;52.828;-8.980;2023-04-30T02:08:20;101692.33;;;14.01;84.26
57412;BME280;43247;52.828;-8.980;2023-04-30T02:09:20;101690.65;;;14.01;84.27
57412;BME280;43247;52.828;-8.980;2023-04-30T02:10:22;101688.78;;;14.00;84.27
57412;BME280;43247;52.828;-8.980;2023-04-30T02:11:21;101690.87;;;14.00;84.26
57412;BME280;43247;52.828;-8.980;2023-04-30T02:12:21;101688.12;;;14.01;84.28
57412;BME280;43247;52.828;-8.980;2023-04-30T02:13:21;101689.07;;;14.01;84.25
57412;BME280;43247;52.828;-8.980;2023-04-30T02:14:21;101684.60;;;14.00;84.31
57412;BME280;43247;52.828;-8.980;2023-04-30T02:15:21;101684.95;;;13.99;84.34
57412;BME280;43247;52.828;-8.980;2023-04-30T02:16:22;101686.21;;;14.00;84.36
57412;BME280;43247;52.828;-8.980;2023-04-30T02:17:22;101684.33;;;13.99;84.30
57412;BME280;43247;52.828;-8.980;2023-04-30T02:18:22;101683.47;;;13.99;84.36
57412;BME280;43247;52.828;-8.980;2023-04-30T02:19:22;101680.34;;;13.99;84.32
57412;BME280;43247;52.828;-8.980;2023-04-30T02:20:23;101680.44;;;13.99;84.37
57412;BME280;43247;52.828;-8.980;2023-04-30T02:21:23;101679.63;;;13.99;84.33
57412;BME280;43247;52.828;-8.980;2023-04-30T02:22:23;101677.26;;;13.98;84.40
57412;BME280;43247;52.828;-8.980;2023-04-30T02:23:23;101674.60;;;13.98;84.42
57412;BME280;43247;52.828;-8.980;2023-04-30T02:24:23;101675.80;;;13.98;84.41
57412;BME280;43247;52.828;-8.980;2023-04-30T02:25:23;101675.69;;;13.98;84.38
57412;BME280;43247;52.828;-8.980;2023-04-30T02:26:24;101671.14;;;13.97;84.39
57412;BME280;43247;52.828;-8.980;2023-04-30T02:27:26;101670.19;;;13.97;84.43
57412;BME280;43247;52.828;-8.980;2023-04-30T02:28:24;101667.10;;;13.97;84.43
57412;BME280;43247;52.828;-8.980;2023-04-30T02:29:24;101664.15;;;13.96;84.44
57412;BME280;43247;52.828;-8.980;2023-04-30T02:30:24;101663.99;;;13.96;84.47
57412;BME280;43247;52.828;-8.980;2023-04-30T02:31:24;101664.03;;;13.96;84.43
57412;BME280;43247;52.828;-8.980;2023-04-30T02:32:25;101661.88;;;13.96;84.42
57412;BME280;43247;52.828;-8.980;2023-04-30T02:33:25;101661.45;;;13.96;84.43
57412;BME280;43247;52.828;-8.980;2023-04-30T02:34:25;101663.57;;;13.96;84.41
57412;BME280;43247;52.828;-8.980;2023-04-30T02:35:25;101661.06;;;13.95;84.46
57412;BME280;43247;52.828;-8.980;2023-04-30T02:36:25;101663.93;;;13.95;84.50
57412;BME280;43247;52.828;-8.980;2023-04-30T02:37:25;101661.51;;;13.95;84.51
57412;BME280;43247;52.828;-8.980;2023-04-30T02:38:26;101663.82;;;13.95;84.49
57412;BME280;43247;52.828;-8.980;2023-04-30T02:39:25;101663.34;;;13.94;84.51
57412;BME280;43247;52.828;-8.980;2023-04-30T02:40:26;101662.02;;;13.94;84.55
57412;BME280;43247;52.828;-8.980;2023-04-30T02:41:26;101660.74;;;13.93;84.52
57412;BME280;43247;52.828;-8.980;2023-04-30T02:42:26;101658.78;;;13.94;84.54
57412;BME280;43247;52.828;-8.980;2023-04-30T02:43:26;101654.74;;;13.93;84.57
57412;BME280;43247;52.828;-8.980;2023-04-30T02:44:27;101657.53;;;13.93;84.56
57412;BME280;43247;52.828;-8.980;2023-04-30T02:45:26;101658.44;;;13.92;84.65
57412;BME280;43247;52.828;-8.980;2023-04-30T02:46:27;101656.83;;;13.91;84.50
57412;BME280;43247;52.828;-8.980;2023-04-30T02:47:27;101658.84;;;13.91;84.54
57412;BME280;43247;52.828;-8.980;2023-04-30T02:48:27;101659.69;;;13.90;84.63
57412;BME280;43247;52.828;-8.980;2023-04-30T02:49:27;101662.03;;;13.90;84.62
57412;BME280;43247;52.828;-8.980;2023-04-30T02:50:27;101657.93;;;13.89;84.63
57412;BME280;43247;52.828;-8.980;2023-04-30T02:51:27;101654.15;;;13.89;84.50
57412;BME280;43247;52.828;-8.980;2023-04-30T02:52:27;101653.12;;;13.88;84.58
57412;BME280;43247;52.828;-8.980;2023-04-30T02:53:28;101656.24;;;13.88;84.64
57412;BME280;43247;52.828;-8.980;2023-04-30T02:54:28;101657.55;;;13.88;84.73
57412;BME280;43247;52.828;-8.980;2023-04-30T02:55:28;101657.74;;;13.87;84.62
57412;BME280;43247;52.828;-8.980;2023-04-30T02:56:28;101660.11;;;13.87;84.60
57412;BME280;43247;52.828;-8.980;2023-04-30T02:57:28;101657.18;;;13.87;84.62
57412;BME280;43247;52.828;-8.980;2023-04-30T02:58:28;101655.21;;;13.86;84.63
57412;BME280;43247;52.828;-8.980;2023-04-30T02:59:29;101654.64;;;13.86;84.59
57412;BME280;43247;52.828;-8.980;2023-04-30T03:00:29;101654.48;;;13.86;84.74
57412;BME280;43247;52.828;-8.980;2023-04-30T03:01:29;101655.64;;;13.85;84.64
57412;BME280;43247;52.828;-8.980;2023-04-30T03:02:29;101654.95;;;13.85;84.69
57412;BME280;43247;52.828;-8.980;2023-04-30T03:03:29;101654.75;;;13.84;84.70
57412;BME280;43247;52.828;-8.980;2023-04-30T03:04:29;101653.55;;;13.84;84.63
57412;BME280;43247;52.828;-8.980;2023-04-30T03:05:30;101653.28;;;13.84;84.62
57412;BME280;43247;52.828;-8.980;2023-04-30T03:06:30;101656.25;;;13.84;84.66
57412;BME280;43247;52.828;-8.980;2023-04-30T03:07:30;101650.48;;;13.83;84.69
57412;BME280;43247;52.828;-8.980;2023-04-30T03:08:30;101652.17;;;13.83;84.63
57412;BME280;43247;52.828;-8.980;2023-04-30T03:09:30;101652.28;;;13.82;84.63
57412;BME280;43247;52.828;-8.980;2023-04-30T03:10:30;101653.45;;;13.82;84.62
57412;BME280;43247;52.828;-8.980;2023-04-30T03:11:30;101654.81;;;13.82;84.52
57412;BME280;43247;52.828;-8.980;2023-04-30T03:12:31;101653.57;;;13.82;84.54
57412;BME280;43247;52.828;-8.980;2023-04-30T03:13:31;101655.41;;;13.81;84.56
57412;BME280;43247;52.828;-8.980;2023-04-30T03:14:31;101652.66;;;13.80;84.59
57412;BME280;43247;52.828;-8.980;2023-04-30T03:15:31;101654.76;;;13.80;84.55
57412;BME280;43247;52.828;-8.980;2023-04-30T03:16:31;101654.70;;;13.79;84.55
57412;BME280;43247;52.828;-8.980;2023-04-30T03:17:31;101655.58;;;13.79;84.61
57412;BME280;43247;52.828;-8.980;2023-04-30T03:18:32;101652.78;;;13.78;84.65
57412;BME280;43247;52.828;-8.980;2023-04-30T03:19:32;101651.55;;;13.78;84.59
57412;BME280;43247;52.828;-8.980;2023-04-30T03:20:32;101652.95;;;13.78;84.63
57412;BME280;43247;52.828;-8.980;2023-04-30T03:21:32;101654.21;;;13.77;84.69
57412;BME280;43247;52.828;-8.980;2023-04-30T03:22:32;101654.08;;;13.76;84.61
57412;BME280;43247;52.828;-8.980;2023-04-30T03:23:32;101653.01;;;13.76;84.68
57412;BME280;43247;52.828;-8.980;2023-04-30T03:24:32;101650.46;;;13.76;84.57
57412;BME280;43247;52.828;-8.980;2023-04-30T03:25:33;101649.71;;;13.75;84.54
57412;BME280;43247;52.828;-8.980;2023-04-30T03:26:33;101647.32;;;13.75;84.57
57412;BME280;43247;52.828;-8.980;2023-04-30T03:27:33;101645.74;;;13.74;84.53
57412;BME280;43247;52.828;-8.980;2023-04-30T03:28:33;101647.81;;;13.74;84.45
57412;BME280;43247;52.828;-8.980;2023-04-30T03:29:33;101648.38;;;13.73;84.41
57412;BME280;43247;52.828;-8.980;2023-04-30T03:30:33;101650.00;;;13.73;84.44
57412;BME280;43247;52.828;-8.980;2023-04-30T03:31:33;101650.04;;;13.73;84.46
57412;BME280;43247;52.828;-8.980;2023-04-30T03:32:34;101648.70;;;13.71;84.50
57412;BME280;43247;52.828;-8.980;2023-04-30T03:33:34;101648.42;;;13.71;84.41
57412;BME280;43247;52.828;-8.980;2023-04-30T03:34:34;101649.25;;;13.71;84.41
57412;BME280;43247;52.828;-8.980;2023-04-30T03:35:34;101647.20;;;13.70;84.41
57412;BME280;43247;52.828;-8.980;2023-04-30T03:36:34;101647.38;;;13.69;84.49
57412;BME280;43247;52.828;-8.980;2023-04-30T03:37:34;101648.26;;;13.69;84.46
57412;BME280;43247;52.828;-8.980;2023-04-30T03:38:35;101647.72;;;13.68;84.45
57412;BME280;43247;52.828;-8.980;2023-04-30T03:39:35;101647.95;;;13.67;84.51
57412;BME280;43247;52.828;-8.980;2023-04-30T03:40:35;101650.79;;;13.66;84.41
57412;BME280;43247;52.828;-8.980;2023-04-30T03:41:35;101652.36;;;13.66;84.35
57412;BME280;43247;52.828;-8.980;2023-04-30T03:42:35;101652.68;;;13.65;84.50
57412;BME280;43247;52.828;-8.980;2023-04-30T03:43:35;101651.79;;;13.65;84.48
57412;BME280;43247;52.828;-8.980;2023-04-30T03:44:35;101652.69;;;13.64;84.47
57412;BME280;43247;52.828;-8.980;2023-04-30T03:45:36;101652.15;;;13.63;84.54
57412;BME280;43247;52.828;-8.980;2023-04-30T03:46:36;101651.79;;;13.62;84.47
57412;BME280;43247;52.828;-8.980;2023-04-30T03:47:36;101649.34;;;13.62;84.50
57412;BME280;43247;52.828;-8.980;2023-04-30T03:48:36;101651.45;;;13.61;84.53
57412;BME280;43247;52.828;-8.980;2023-04-30T03:49:36;101652.00;;;13.60;84.48
57412;BME280;43247;52.828;-8.980;2023-04-30T03:50:36;101651.27;;;13.60;84.62
57412;BME280;43247;52.828;-8.980;2023-04-30T03:51:37;101652.94;;;13.59;84.56
57412;BME280;43247;52.828;-8.980;2023-04-30T03:52:37;101651.85;;;13.58;84.51
57412;BME280;43247;52.828;-8.980;2023-04-30T03:53:37;101651.29;;;13.58;84.48
57412;BME280;43247;52.828;-8.980;2023-04-30T03:54:37;101652.84;;;13.57;84.50
57412;BME280;43247;52.828;-8.980;2023-04-30T03:55:37;101653.16;;;13.56;84.50
57412;BME280;43247;52.828;-8.980;2023-04-30T03:56:38;101653.16;;;13.55;84.54
57412;BME280;43247;52.828;-8.980;2023-04-30T03:57:38;101651.59;;;13.55;84.48
57412;BME280;43247;52.828;-8.980;2023-04-30T03:58:38;101651.46;;;13.54;84.66
57412;BME280;43247;52.828;-8.980;2023-04-30T03:59:38;101654.68;;;13.53;84.50
57412;BME280;43247;52.828;-8.980;2023-04-30T04:00:39;101655.30;;;13.54;84.69
57412;BME280;43247;52.828;-8.980;2023-04-30T04:01:38;101654.94;;;13.53;84.57
57412;BME280;43247;52.828;-8.980;2023-04-30T04:02:39;101655.63;;;13.53;84.54
57412;BME280;43247;52.828;-8.980;2023-04-30T04:03:38;101656.01;;;13.52;84.47
57412;BME280;43247;52.828;-8.980;2023-04-30T04:04:39;101655.28;;;13.52;84.55
57412;BME280;43247;52.828;-8.980;2023-04-30T04:05:39;101657.10;;;13.52;84.42
57412;BME280;43247;52.828;-8.980;2023-04-30T04:06:39;101657.82;;;13.52;84.41
57412;BME280;43247;52.828;-8.980;2023-04-30T04:07:39;101658.96;;;13.51;84.60
57412;BME280;43247;52.828;-8.980;2023-04-30T04:08:39;101655.70;;;13.51;84.49
57412;BME280;43247;52.828;-8.980;2023-04-30T04:09:40;101657.32;;;13.51;84.48
57412;BME280;43247;52.828;-8.980;2023-04-30T04:10:40;101658.85;;;13.50;84.45
57412;BME280;43247;52.828;-8.980;2023-04-30T04:11:40;101655.91;;;13.50;84.44
57412;BME280;43247;52.828;-8.980;2023-04-30T04:12:40;101653.88;;;13.51;84.35
57412;BME280;43247;52.828;-8.980;2023-04-30T04:13:40;101656.70;;;13.50;84.46
57412;BME280;43247;52.828;-8.980;2023-04-30T04:14:40;101655.50;;;13.50;84.46
57412;BME280;43247;52.828;-8.980;2023-04-30T04:15:40;101657.63;;;13.50;84.42
57412;BME280;43247;52.828;-8.980;2023-04-30T04:16:40;101654.59;;;13.50;84.62
57412;BME280;43247;52.828;-8.980;2023-04-30T04:17:41;101651.14;;;13.49;84.40
57412;BME280;43247;52.828;-8.980;2023-04-30T04:18:41;101649.60;;;13.49;84.51
57412;BME280;43247;52.828;-8.980;2023-04-30T04:19:41;101651.97;;;13.49;84.52
57412;BME280;43247;52.828;-8.980;2023-04-30T04:20:41;101650.67;;;13.48;84.44
57412;BME280;43247;52.828;-8.980;2023-04-30T04:21:41;101653.47;;;13.48;84.35
57412;BME280;43247;52.828;-8.980;2023-04-30T04:22:41;101655.12;;;13.48;84.36
57412;BME280;43247;52.828;-8.980;2023-04-30T04:23:42;101657.61;;;13.48;84.32
57412;BME280;43247;52.828;-8.980;2023-04-30T04:24:42;101654.44;;;13.48;84.38
57412;BME280;43247;52.828;-8.980;2023-04-30T04:25:42;101656.44;;;13.47;84.44
57412;BME280;43247;52.828;-8.980;2023-04-30T04:26:43;101656.23;;;13.47;84.31
57412;BME280;43247;52.828;-8.980;2023-04-30T04:27:43;101658.27;;;13.47;84.29
57412;BME280;43247;52.828;-8.980;2023-04-30T04:28:43;101656.58;;;13.47;84.30
57412;BME280;43247;52.828;-8.980;2023-04-30T04:29:43;101657.85;;;13.46;84.26
57412;BME280;43247;52.828;-8.980;2023-04-30T04:30:44;101655.98;;;13.46;84.30
57412;BME280;43247;52.828;-8.980;2023-04-30T04:31:44;101654.16;;;13.46;84.33
57412;BME280;43247;52.828;-8.980;2023-04-30T04:32:44;101653.17;;;13.46;84.25
57412;BME280;43247;52.828;-8.980;2023-04-30T04:33:44;101651.98;;;13.46;84.30
57412;BME280;43247;52.828;-8.980;2023-04-30T04:34:44;101652.20;;;13.45;84.31
57412;BME280;43247;52.828;-8.980;2023-04-30T04:35:44;101651.01;;;13.45;84.33
57412;BME280;43247;52.828;-8.980;2023-04-30T04:36:44;101652.41;;;13.44;84.36
57412;BME280;43247;52.828;-8.980;2023-04-30T04:37:45;101651.26;;;13.44;84.32
57412;BME280;43247;52.828;-8.980;2023-04-30T04:38:45;101652.00;;;13.44;84.31
57412;BME280;43247;52.828;-8.980;2023-04-30T04:39:45;101652.31;;;13.43;84.26
57412;BME280;43247;52.828;-8.980;2023-04-30T04:40:50;101654.60;;;13.44;84.19
57412;BME280;43247;52.828;-8.980;2023-04-30T04:41:45;101652.19;;;13.44;84.20
57412;BME280;43247;52.828;-8.980;2023-04-30T04:42:48;101653.81;;;13.43;84.19
57412;BME280;43247;52.828;-8.980;2023-04-30T04:43:45;101653.26;;;13.43;84.13
57412;BME280;43247;52.828;-8.980;2023-04-30T04:44:46;101653.23;;;13.43;84.22
57412;BME280;43247;52.828;-8.980;2023-04-30T04:45:46;101650.24;;;13.43;84.28
57412;BME280;43247;52.828;-8.980;2023-04-30T04:46:46;101651.43;;;13.43;84.24
57412;BME280;43247;52.828;-8.980;2023-04-30T04:47:46;101649.88;;;13.43;84.23
57412;BME280;43247;52.828;-8.980;2023-04-30T04:48:46;101645.78;;;13.42;84.30
57412;BME280;43247;52.828;-8.980;2023-04-30T04:49:46;101648.92;;;13.42;84.27
57412;BME280;43247;52.828;-8.980;2023-04-30T04:50:47;101649.90;;;13.42;84.30
57412;BME280;43247;52.828;-8.980;2023-04-30T04:51:47;101649.51;;;13.42;84.24
57412;BME280;43247;52.828;-8.980;2023-04-30T04:52:47;101647.35;;;13.42;84.33
57412;BME280;43247;52.828;-8.980;2023-04-30T04:53:47;101649.55;;;13.41;84.23
57412;BME280;43247;52.828;-8.980;2023-04-30T04:54:47;101650.46;;;13.41;84.23
57412;BME280;43247;52.828;-8.980;2023-04-30T04:55:47;101650.65;;;13.41;84.25
57412;BME280;43247;52.828;-8.980;2023-04-30T04:56:47;101651.58;;;13.41;84.20
57412;BME280;43247;52.828;-8.980;2023-04-30T04:57:47;101648.35;;;13.41;84.23
57412;BME280;43247;52.828;-8.980;2023-04-30T04:58:48;101649.46;;;13.41;84.22
57412;BME280;43247;52.828;-8.980;2023-04-30T04:59:48;101646.84;;;13.41;84.23
57412;BME280;43247;52.828;-8.980;2023-04-30T05:00:48;101647.89;;;13.40;84.30
57412;BME280;43247;52.828;-8.980;2023-04-30T05:01:48;101647.86;;;13.40;84.27
57412;BME280;43247;52.828;-8.980;2023-04-30T05:02:48;101646.86;;;13.40;84.21
57412;BME280;43247;52.828;-8.980;2023-04-30T05:03:48;101646.79;;;13.40;84.23
57412;BME280;43247;52.828;-8.980;2023-04-30T05:04:49;101647.49;;;13.41;84.18
57412;BME280;43247;52.828;-8.980;2023-04-30T05:05:49;101649.30;;;13.41;84.01
57412;BME280;43247;52.828;-8.980;2023-04-30T05:06:49;101647.65;;;13.41;83.89
57412;BME280;43247;52.828;-8.980;2023-04-30T05:07:49;101645.86;;;13.41;83.83
57412;BME280;43247;52.828;-8.980;2023-04-30T05:08:49;101644.95;;;13.41;83.79
57412;BME280;43247;52.828;-8.980;2023-04-30T05:09:49;101645.55;;;13.41;83.71
57412;BME280;43247;52.828;-8.980;2023-04-30T05:10:49;101644.72;;;13.41;83.66